Time;durP1;ratioP1;P1;durP2;ratioP2;P2;SDS_P1;SDS_P2;PMS_P1;PMS_P2;Temp;Humidity;BMP_temperature;BMP_pressure;BME280_temperature;BME280_humidity;BME280_pressure;Samples;Min_cycle;Max_cycle;Signal;HPM_P1;HPM_P2
2022/06/11 00:03:30;;;;;;;5.95;1.95;;;19.00;99.90;;;;;;6710032;88;20272;-78
2022/06/11 00:13:32;;;;;;;4.25;2.03;;;18.90;99.90;;;;;;6711667;88;20695;-78
2022/06/11 00:23:33;;;;;;;4.87;1.85;;;19.10;99.90;;;;;;6713576;88;20209;-78
2022/06/11 00:33:36;;;;;;;8.20;2.40;;;18.90;99.90;;;;;;6719930;88;20230;-78
2022/06/11 00:43:39;;;;;;;3.78;2.05;;;18.90;99.90;;;;;;6714407;88;20192;-78
2022/06/11 00:53:46;;;;;;;5.18;2.12;;;18.60;99.90;;;;;;6713378;88;20204;-77
2022/06/11 01:03:48;;;;;;;4.20;2.15;;;18.80;99.90;;;;;;6713439;88;20181;-78
2022/06/11 01:13:54;;;;;;;8.82;2.45;;;18.50;99.90;;;;;;6713259;88;20189;-79
2022/06/11 01:24:43;;;;;;;4.78;2.45;;;18.60;99.90;;;;;;6715815;88;20777;-78
2022/06/11 01:34:51;;;;;;;4.35;2.00;;;18.50;99.90;;;;;;6713218;88;20548;-77
2022/06/11 01:45:14;;;;;;;5.57;2.40;;;18.80;99.90;;;;;;6709396;88;20643;-78
2022/06/11 01:55:34;;;;;;;4.85;2.08;;;18.50;99.90;;;;;;6712176;88;20376;-78
2022/06/11 02:05:59;;;;;;;5.87;2.03;;;18.30;99.90;;;;;;6715937;88;20683;-77
2022/06/11 02:16:23;;;;;;;5.27;2.50;;;18.50;99.90;;;;;;6692040;88;20248;-79
2022/06/11 02:26:34;;;;;;;6.97;2.30;;;18.40;99.90;;;;;;6700744;88;20217;-78
2022/06/11 02:36:46;;;;;;;4.65;2.40;;;18.20;99.90;;;;;;6699720;88;20651;-78
2022/06/11 02:46:47;;;;;;;5.25;2.50;;;18.20;99.90;;;;;;6699242;88;20235;-77
2022/06/11 02:56:50;;;;;;;5.53;2.40;;;18.00;99.90;;;;;;6698526;88;20182;-78
2022/06/11 03:06:51;;;;;;;6.07;2.40;;;18.00;99.90;;;;;;6698069;88;20240;-78
2022/06/11 03:16:52;;;;;;;9.07;2.47;;;18.00;99.90;;;;;;6698441;88;20795;-78
2022/06/11 03:26:54;;;;;;;5.57;2.33;;;18.20;99.90;;;;;;6698070;88;20226;-78
2022/06/11 03:36:55;;;;;;;7.97;2.37;;;18.20;99.90;;;;;;6697404;88;20719;-78
2022/06/11 03:46:56;;;;;;;7.15;2.50;;;18.20;99.90;;;;;;6691732;88;20191;-78
2022/06/11 03:56:57;;;;;;;4.65;2.20;;;18.10;99.90;;;;;;6695694;88;20241;-77
2022/06/11 04:06:59;;;;;;;6.37;2.87;;;18.20;99.90;;;;;;6694634;88;20173;-78
2022/06/11 04:17:06;;;;;;;6.82;2.75;;;17.90;99.90;;;;;;6696925;88;20514;-78
2022/06/11 04:27:10;;;;;;;4.35;2.30;;;18.00;99.90;;;;;;6697005;88;20207;-78
2022/06/11 04:37:13;;;;;;;6.60;2.40;;;18.00;99.90;;;;;;6696836;88;20190;-78
2022/06/11 04:47:18;;;;;;;7.10;2.55;;;18.00;99.90;;;;;;6687989;88;20264;-78
2022/06/11 04:57:19;;;;;;;9.63;2.87;;;18.20;99.90;;;;;;6696147;88;20326;-78
2022/06/11 05:07:21;;;;;;;4.15;2.28;;;18.10;99.90;;;;;;6696785;88;20248;-78
2022/06/11 05:17:22;;;;;;;5.10;2.30;;;18.30;99.90;;;;;;6697770;88;20218;-78
2022/06/11 05:27:24;;;;;;;7.97;2.70;;;18.40;99.90;;;;;;6696745;88;20808;-78
2022/06/11 05:37:24;;;;;;;7.93;2.17;;;18.60;99.90;;;;;;6694720;89;20319;-79
2022/06/11 05:47:26;;;;;;;5.85;2.20;;;18.60;99.90;;;;;;6697113;89;20209;-78
2022/06/11 05:57:28;;;;;;;3.28;2.20;;;18.80;99.90;;;;;;6696369;89;20190;-78
2022/06/11 06:07:28;;;;;;;7.18;2.10;;;19.10;99.90;;;;;;6695323;89;20206;-78
2022/06/11 06:17:29;;;;;;;6.22;2.25;;;19.30;99.90;;;;;;6693943;89;20226;-77
2022/06/11 06:27:29;;;;;;;4.78;2.40;;;19.10;99.90;;;;;;6697640;88;20207;-80
2022/06/11 06:37:31;;;;;;;6.10;2.37;;;19.20;99.90;;;;;;6694709;88;20197;-80
2022/06/11 06:47:32;;;;;;;5.37;2.20;;;19.40;99.90;;;;;;6700817;88;20237;-78
2022/06/11 06:57:32;;;;;;;5.75;2.17;;;19.50;99.90;;;;;;6699719;88;20219;-78
2022/06/11 07:07:34;;;;;;;7.93;2.05;;;20.00;99.90;;;;;;6697773;88;20190;-78
2022/06/11 07:17:47;;;;;;;6.78;2.20;;;20.20;99.90;;;;;;6691514;88;20241;-78
2022/06/11 07:27:55;;;;;;;4.53;2.20;;;20.50;99.90;;;;;;6715338;88;20183;-80
2022/06/11 07:37:55;;;;;;;4.72;2.10;;;20.60;99.90;;;;;;6714612;88;20344;-78
2022/06/11 07:47:56;;;;;;;9.23;2.42;;;21.00;99.90;;;;;;6710387;88;20209;-78
2022/06/11 07:57:57;;;;;;;3.47;1.80;;;21.30;99.90;;;;;;6714693;88;20198;-79
2022/06/11 08:07:57;;;;;;;5.90;1.98;;;21.60;99.90;;;;;;6714775;88;20218;-78
2022/06/11 08:17:58;;;;;;;3.87;1.60;;;21.90;99.90;;;;;;6714786;88;20201;-79
2022/06/11 08:28:00;;;;;;;3.40;1.60;;;22.70;99.90;;;;;;6713838;88;20194;-79
2022/06/11 08:38:02;;;;;;;4.47;1.37;;;22.80;99.90;;;;;;6715159;88;20243;-80
2022/06/11 08:48:13;;;;;;;3.45;1.30;;;23.00;99.90;;;;;;6713863;88;20178;-78
2022/06/11 08:58:36;;;;;;;2.62;1.40;;;23.60;99.90;;;;;;6713863;88;20264;-80
2022/06/11 09:08:47;;;;;;;3.50;1.42;;;24.40;99.90;;;;;;6714976;88;20214;-81
2022/06/11 09:19:19;;;;;;;4.15;1.37;;;24.50;99.90;;;;;;6700077;88;20202;-79
2022/06/11 09:29:51;;;;;;;2.62;1.20;;;24.60;99.90;;;;;;6698238;89;20173;-78
2022/06/11 09:40:07;;;;;;;2.17;1.15;;;25.00;99.90;;;;;;6713153;88;20336;-79
2022/06/11 09:50:21;;;;;;;2.72;1.25;;;26.40;99.70;;;;;;6689851;89;20670;-79
2022/06/11 10:01:02;;;;;;;2.25;1.00;;;26.40;97.10;;;;;;6695550;89;20182;-78
2022/06/11 10:11:05;;;;;;;2.85;1.20;;;26.70;96.80;;;;;;6713306;88;20258;-79
2022/06/11 10:21:10;;;;;;;;;;;27.30;94.90;;;;;;6718218;88;20344;-78
2022/06/11 10:31:17;;;;;;;2.53;0.95;;;27.90;95.30;;;;;;6716262;88;20050;-78
2022/06/11 10:41:25;;;;;;;3.12;0.98;;;27.70;93.40;;;;;;6716231;88;20199;-78
2022/06/11 10:51:30;;;;;;;2.65;1.08;;;28.00;93.90;;;;;;6714158;88;20697;-78
2022/06/11 11:01:39;;;;;;;2.80;0.93;;;28.20;93.30;;;;;;6715223;88;20334;-79
2022/06/11 11:11:46;;;;;;;3.20;1.20;;;28.20;93.00;;;;;;6720331;88;20201;-78
2022/06/11 11:21:54;;;;;;;3.15;1.30;;;26.80;93.80;;;;;;6718103;88;20262;-78
2022/06/11 11:32:06;;;;;;;3.22;1.00;;;26.10;94.50;;;;;;6717414;88;20181;-79
2022/06/11 11:42:06;;;;;;;3.10;1.05;;;27.80;93.70;;;;;;6730979;77;20738;-78
2022/06/11 11:52:15;;;;;;;3.25;1.10;;;29.40;92.30;;;;;;6708305;88;20217;-77
2022/06/11 12:02:46;;;;;;;3.70;1.20;;;30.60;91.00;;;;;;6708359;88;20219;-77
2022/06/11 12:12:50;;;;;;;4.22;1.27;;;30.50;90.40;;;;;;6709545;88;20248;-78
2022/06/11 12:23:02;;;;;;;3.08;1.30;;;30.30;90.40;;;;;;6706281;88;20194;-78
2022/06/11 12:33:10;;;;;;;1.77;1.17;;;30.00;88.80;;;;;;6709421;88;20281;-78
2022/06/11 12:43:29;;;;;;;2.22;1.30;;;30.70;88.40;;;;;;6704880;88;20585;-78
2022/06/11 12:53:51;;;;;;;2.50;1.25;;;30.50;90.10;;;;;;6708678;88;20215;-78
2022/06/11 13:04:12;;;;;;;2.30;1.27;;;30.20;88.00;;;;;;6708844;88;20221;-78
2022/06/11 13:14:58;;;;;;;2.37;1.30;;;29.20;90.20;;;;;;6707496;88;20200;-79
2022/06/11 13:25:32;;;;;;;2.25;1.45;;;30.60;90.30;;;;;;6701718;88;20218;-78
2022/06/11 13:35:58;;;;;;;3.58;1.60;;;32.40;86.20;;;;;;6711260;88;20216;-78
2022/06/11 13:46:20;;;;;;;3.12;1.42;;;32.40;85.60;;;;;;6710861;88;20182;-78
2022/06/11 13:56:54;;;;;;;3.85;1.90;;;32.80;85.60;;;;;;6709752;88;20308;-78
2022/06/11 14:06:58;;;;;;;3.12;1.70;;;31.80;85.60;;;;;;6711380;88;20182;-79
2022/06/11 14:16:58;;;;;;;5.47;1.83;;;31.70;86.20;;;;;;6717437;88;20907;-78
2022/06/11 14:26:59;;;;;;;3.62;2.00;;;31.00;87.40;;;;;;6714749;88;20186;-78
2022/06/11 14:37:12;;;;;;;4.17;1.80;;;30.00;90.40;;;;;;6708560;88;20725;-78
2022/06/11 14:47:49;;;;;;;4.25;2.40;;;30.00;90.60;;;;;;6714057;88;20769;-78
2022/06/11 14:58:01;;;;;;;6.20;2.28;;;29.30;91.10;;;;;;6707198;88;20206;-78
2022/06/11 15:08:24;;;;;;;4.22;1.95;;;29.20;91.50;;;;;;6711788;88;20677;-78
2022/06/11 15:18:29;;;;;;;4.67;2.10;;;29.90;91.10;;;;;;6707833;88;20191;-78
2022/06/11 15:28:30;;;;;;;4.45;2.05;;;31.00;89.30;;;;;;6714006;88;20621;-78
2022/06/11 15:38:45;;;;;;;3.58;1.90;;;31.30;90.30;;;;;;6712251;88;20189;-78
2022/06/11 15:48:46;;;;;;;3.30;1.80;;;31.80;87.00;;;;;;6718278;88;20280;-79
2022/06/11 15:58:47;;;;;;;5.70;2.10;;;31.90;86.30;;;;;;6719688;88;20696;-78
2022/06/11 16:09:01;;;;;;;4.45;1.65;;;31.70;86.90;;;;;;6710889;88;20194;-78
2022/06/11 16:19:03;;;;;;;4.07;2.08;;;30.80;87.20;;;;;;6706649;88;20187;-78
2022/06/11 16:29:10;;;;;;;3.10;1.80;;;29.10;90.30;;;;;;6704925;88;20186;-78
2022/06/11 16:39:14;;;;;;;4.57;1.87;;;28.40;90.80;;;;;;6708024;88;20204;-78
2022/06/11 16:59:45;;;;;;;4.05;1.65;;;27.50;92.80;;;;;;6702063;88;20209;-78
2022/06/11 17:09:46;;;;;;;4.40;1.48;;;27.00;94.10;;;;;;6709430;88;20644;-78
2022/06/11 17:19:51;;;;;;;2.12;1.37;;;26.40;95.00;;;;;;6706679;88;20198;-78
2022/06/11 17:29:51;;;;;;;4.53;1.77;;;26.30;95.40;;;;;;6707205;88;20197;-78
2022/06/11 17:50:54;;;;;;;4.40;1.50;;;25.90;96.00;;;;;;6671386;89;20616;-78
2022/06/11 18:00:54;;;;;;;5.22;2.50;;;25.50;96.50;;;;;;6663998;89;20244;-78
2022/06/11 18:10:55;;;;;;;3.08;1.70;;;25.90;95.60;;;;;;6668470;89;20289;-78
2022/06/11 18:20:55;;;;;;;5.47;1.70;;;25.30;96.80;;;;;;6668616;89;20282;-78
2022/06/11 18:30:56;;;;;;;5.12;1.60;;;24.90;97.10;;;;;;6672142;89;20261;-80
2022/06/11 18:40:57;;;;;;;3.80;1.60;;;24.70;97.60;;;;;;6683255;88;20302;-78
2022/06/11 18:50:57;;;;;;;3.42;1.52;;;24.40;98.10;;;;;;6676507;88;21333;-78
2022/06/11 19:00:58;;;;;;;3.33;1.50;;;24.20;98.60;;;;;;6686510;88;20354;-78
2022/06/11 19:10:59;;;;;;;3.53;1.30;;;24.00;99.60;;;;;;6680092;88;20186;-78
2022/06/11 19:21:01;;;;;;;4.35;1.50;;;23.80;99.40;;;;;;6686854;88;20190;-79
2022/06/11 19:31:03;;;;;;;3.92;1.15;;;23.40;99.60;;;;;;6679118;88;20183;-79
2022/06/11 19:41:10;;;;;;;4.20;1.40;;;23.30;99.90;;;;;;6676296;88;20195;-83
2022/06/11 19:51:13;;;;;;;5.37;1.30;;;23.20;99.90;;;;;;6674730;89;20186;-79
2022/06/11 20:01:15;;;;;;;4.13;1.80;;;23.10;99.90;;;;;;6670629;88;20318;-79
2022/06/11 20:11:19;;;;;;;4.50;1.80;;;23.10;99.90;;;;;;6673081;88;20233;-79
2022/06/11 20:21:19;;;;;;;;;;;22.80;99.90;;;;;;6679966;88;20253;-78
2022/06/11 20:31:21;;;;;;;7.53;1.70;;;22.70;99.90;;;;;;6687677;88;20046;-79
2022/06/11 20:41:21;;;;;;;6.22;1.90;;;22.50;99.90;;;;;;6662580;89;20288;-78
2022/06/11 20:51:31;;;;;;;4.00;1.90;;;22.20;99.90;;;;;;6670180;88;20196;-78
2022/06/11 21:01:32;;;;;;;6.00;2.40;;;22.00;99.90;;;;;;6682090;88;20649;-79
2022/06/11 21:11:51;;;;;;;5.57;2.00;;;21.80;99.90;;;;;;6675018;89;20324;-79
2022/06/11 21:21:55;;;;;;;5.93;2.15;;;21.40;99.90;;;;;;6661926;89;20292;-79
2022/06/11 21:31:55;;;;;;;7.03;2.60;;;21.20;99.90;;;;;;6686242;88;20221;-78
2022/06/11 21:41:56;;;;;;;5.90;2.15;;;21.00;99.90;;;;;;6686451;88;20218;-77
2022/06/11 21:52:00;;;;;;;6.50;2.10;;;20.90;99.90;;;;;;6689467;88;20270;-78
2022/06/11 22:02:01;;;;;;;6.03;1.70;;;20.80;99.90;;;;;;6687495;88;20205;-81
2022/06/11 22:12:02;;;;;;;5.75;1.70;;;20.80;99.90;;;;;;6693860;88;20276;-81
2022/06/11 22:22:17;;;;;;;4.72;1.60;;;20.70;99.90;;;;;;6695776;88;20557;-82
2022/06/11 22:32:24;;;;;;;7.32;1.90;;;20.50;99.90;;;;;;6664688;89;20324;-81
2022/06/11 22:42:26;;;;;;;5.93;1.80;;;20.50;99.90;;;;;;6661890;89;20204;-80
2022/06/11 22:52:27;;;;;;;4.20;1.58;;;20.40;99.90;;;;;;6666157;89;20182;-81
2022/06/11 23:02:27;;;;;;;5.45;2.03;;;20.30;99.90;;;;;;6663054;89;20207;-82
2022/06/11 23:12:28;;;;;;;5.35;1.65;;;20.10;99.90;;;;;;6664263;89;20229;-81
2022/06/11 23:22:28;;;;;;;6.62;1.60;;;20.00;99.90;;;;;;6670499;89;20199;-81
2022/06/11 23:32:29;;;;;;;7.82;1.70;;;19.80;99.90;;;;;;6668406;89;20256;-82
2022/06/11 23:42:30;;;;;;;5.60;1.67;;;19.70;99.90;;;;;;6698963;77;20272;-77
2022/06/11 23:52:30;;;;;;;5.43;1.80;;;19.60;99.90;;;;;;6703024;88;20211;-78
